METAR Data
IDs: Format: Raw Decoded Include TAF

Data at: 2009 UTC 25 Sep 2020

KARV 251955Z AUTO 20008KT 10SM BKN030 OVC037 23/19 A2977 RMK AO2 T02300185
KARV 251935Z AUTO 20009KT 10SM BKN029 OVC034 23/19 A2977 RMK AO2 T02300186
KARV 251915Z AUTO 18008KT 140V200 10SM BKN031 22/18 A2977 RMK AO2 T02220181
KARV 251855Z AUTO 17007KT 10SM SCT027 SCT044 23/19 A2978 RMK AO2 T02310188
KARV 251835Z AUTO 18011KT 10SM SCT016 SCT023 SCT043 22/18 A2979 RMK AO2 T02220176
KARV 251815Z AUTO 17008KT 10SM SCT012 BKN017 22/18 A2980 RMK AO2 T02220178
KARV 251755Z AUTO 20007KT 10SM BKN011 BKN016 20/15 A2981 RMK AO2 T01970152 10197 20152
KARV 251735Z AUTO 17007KT 10SM OVC009 18/14 A2982 RMK AO2 T01800135
KARV 251715Z AUTO 18009KT 10SM OVC007 18/14 A2983 RMK AO2 T01800135
KARV 251655Z AUTO 19008KT 10SM OVC007 18/13 A2984 RMK AO2 T01750134
KARV 251635Z AUTO 18007KT 10SM OVC005 17/13 A2984 RMK AO2 T01730126
KARV 251615Z AUTO 17007KT 10SM OVC005 17/13 A2985 RMK AO2 T01700125
KARV 251555Z AUTO 17007KT 10SM OVC005 17/12 A2985 RMK AO2 T01660120
KARV 251535Z AUTO 20008KT 10SM OVC005 17/12 A2986 RMK AO2 T01660121
KARV 251515Z AUTO 19006KT 10SM OVC005 17/12 A2987 RMK AO2 T01660121
KARV 251455Z AUTO 19007KT 10SM OVC005 17/12 A2988 RMK AO2 T01660124
KARV 251435Z AUTO 20005KT 10SM OVC005 17/12 A2987 RMK AO2 T01660121
KARV 251415Z AUTO 18005KT 7SM OVC005 17/13 A2987 RMK AO2 T01660126
KARV 251355Z AUTO 19005KT 10SM OVC005 16/12 A2987 RMK AO2 T01550115
KARV 251335Z AUTO 18005KT 10SM OVC007 16/11 A2988 RMK AO2 T01550112
KARV 251315Z AUTO 18006KT 10SM OVC007 15/11 A2988 RMK AO2 T01520111
KARV 251255Z AUTO 19005KT 10SM OVC007 15/11 A2988 RMK AO2 T01520110
KARV 251235Z AUTO 18006KT 10SM OVC007 15/11 A2988 RMK AO2 T01520108
KARV 251215Z AUTO 17007KT 10SM OVC007 15/11 A2988 RMK AO2 T01520110
KARV 251155Z AUTO 20005KT 10SM OVC009 15/11 A2988 RMK AO2 T01520111 10152 20138
KARV 251135Z AUTO 19004KT 10SM OVC011 15/11 A2988 RMK AO2 T01520110
KARV 251115Z AUTO 00000KT 7SM BKN009 BKN013 15/11 A2988 RMK AO2 T01490108
KARV 251055Z AUTO 00000KT 7SM SCT015 14/10 A2988 RMK AO2 T01440104
KARV 251035Z AUTO 00000KT 10SM BKN017 15/11 A2988 RMK AO2 T01520111
KARV 251015Z AUTO 21003KT 10SM BKN019 15/11 A2988 RMK AO2 T01520110
KARV 250955Z AUTO 20004KT 10SM SCT007 BKN023 15/11 A2988 RMK AO2 T01520110
KARV 250935Z AUTO 21005KT 10SM SCT007 BKN010 OVC025 15/11 A2988 RMK AO2 T01520111
KARV 250915Z AUTO 19004KT 10SM SCT003 BKN014 OVC023 15/11 A2988 RMK AO2 T01520112
KARV 250855Z AUTO 19007KT 10SM OVC003 15/11 A2988 RMK AO2 T01520111
KARV 250835Z AUTO 20006KT 10SM BKN003 OVC007 15/11 A2988 RMK AO2 T01520111
KARV 250815Z AUTO 00000KT 5SM HZ OVC003 15/11 A2988 RMK AO2 T01520110
KARV 250755Z AUTO 15003KT 5SM HZ OVC003 15/11 A2988 RMK AO2 T01520110
KARV 250735Z AUTO 17003KT 5SM HZ OVC003 15/11 A2988 RMK AO2 T01520110
KARV 250715Z AUTO 13003KT 7SM BKN005 OVC008 15/11 A2987 RMK AO2 T01520110
KARV 250655Z AUTO 12004KT 5SM HZ OVC005 15/11 A2987 RMK AO2 T01520110
KARV 250635Z AUTO 00000KT 7SM OVC005 15/11 A2988 RMK AO2 T01520108
KARV 250615Z AUTO 00000KT 7SM RA OVC005 15/11 A2988 RMK AO2 T01520107
KARV 250555Z AUTO 00000KT 10SM OVC005 15/11 A2989 RMK AO2 T01520108 10166 20152 401800152
KARV 250535Z AUTO 00000KT 10SM OVC007 15/11 A2989 RMK AO2 T01520108
KARV 250515Z AUTO 14003KT 10SM OVC007 15/11 A2989 RMK AO2 T01520107
KARV 250455Z AUTO 14005KT 10SM OVC007 15/11 A2989 RMK AO2 T01520107
KARV 250435Z AUTO 00000KT 10SM OVC007 15/11 A2989 RMK AO2 T01520108
KARV 250415Z AUTO 00000KT 10SM OVC007 15/11 A2990 RMK AO2 T01530108
KARV 250355Z AUTO 14003KT 10SM OVC005 15/11 A2990 RMK AO2 T01530109
KARV 250335Z AUTO 11003KT 10SM OVC005 15/11 A2990 RMK AO2 T01530108
KARV 250315Z AUTO 12004KT 7SM OVC005 16/11 A2991 RMK AO2 T01550108
KARV 250255Z AUTO 13003KT 10SM OVC005 16/11 A2990 RMK AO2 T01550109
KARV 250235Z AUTO 11004KT 10SM OVC005 16/11 A2990 RMK AO2 T01550110
KARV 250215Z AUTO 11004KT 10SM OVC007 16/11 A2990 RMK AO2 T01550110
KARV 250155Z AUTO 12003KT 10SM -DZ OVC007 16/12 A2991 RMK AO2 T01640118
KARV 250135Z AUTO 00000KT 10SM -RA OVC007 17/12 A2991 RMK AO2 T01660120
KARV 250115Z AUTO 00000KT 10SM BKN007 OVC011 17/12 A2991 RMK AO2 T01660120
KARV 250055Z AUTO 00000KT 10SM BKN009 OVC017 17/12 A2991 RMK AO2 T01660120
KARV 250035Z AUTO 11005KT 10SM BKN009 OVC018 17/12 A2991 RMK AO2 T01660120
KARV 250015Z AUTO 14003KT 10SM BKN009 OVC014 17/12 A2990 RMK AO2 T01660120
KARV 242355Z AUTO 13004KT 10SM BKN013 OVC022 17/12 A2990 RMK AO2 T01660120 10180 20166
KARV 242335Z AUTO 12004KT 10SM BKN015 BKN019 OVC024 17/12 A2990 RMK AO2 T01660120
KARV 242315Z AUTO 00000KT 10SM SCT012 OVC017 17/12 A2990 RMK AO2 T01670121
KARV 242255Z AUTO 13003KT 10SM SCT012 OVC019 17/13 A2989 RMK AO2 T01720125
KARV 242235Z AUTO 13007KT 10SM SCT010 BKN019 BKN060 17/13 A2989 RMK AO2 T01730127
KARV 242215Z AUTO 00000KT 10SM SCT008 BKN025 BKN060 17/13 A2988 RMK AO2 T01740129
KARV 242155Z AUTO 10003KT 10SM SCT012 SCT018 OVC028 17/12 A2989 RMK AO2 T01670122
KARV 242135Z AUTO 09003KT 10SM SCT010 BKN018 OVC028 17/12 A2990 RMK AO2 T01660121
KARV 242115Z AUTO 10003KT 10SM SCT010 SCT016 OVC030 17/12 A2991 RMK AO2 T01690124
KARV 242055Z AUTO 00000KT 10SM BKN014 BKN030 OVC039 17/13 A2991 RMK AO2 T01700126
KARV 242035Z AUTO 13003KT 10SM SCT014 OVC039 17/13 A2991 RMK AO2 T01730131
KARV 242015Z AUTO 14003KT 10SM BKN012 BKN017 OVC065 17/13 A2991 RMK AO2 T01730132
KARV 241955Z AUTO 00000KT 10SM SCT012 BKN048 OVC065 17/13 A2991 RMK AO2 T01730130
KARV 241935Z AUTO 11003KT 10SM SCT012 BKN060 OVC070 17/13 A2990 RMK AO2 T01730131
KARV 241915Z AUTO 00000KT 10SM SCT006 BKN065 OVC080 17/13 A2990 RMK AO2 T01720131
KARV 241855Z AUTO 11004KT 10SM SCT006 SCT065 OVC080 17/13 A2990 RMK AO2 T01660125
KARV 241835Z AUTO 10003KT 10SM SCT005 BKN041 OVC080 17/13 A2991 RMK AO2 T01660125
KARV 241815Z AUTO 11005KT 10SM SCT005 BKN009 OVC042 17/13 A2992 RMK AO2 T01660125
KARV 241755Z AUTO 10003KT 10SM SCT007 SCT012 OVC032 17/13 A2993 RMK AO2 T01660125 10166 20152
KARV 241735Z AUTO 00000KT 10SM BKN009 BKN015 OVC030 17/13 A2993 RMK AO2 T01660125
KARV 241715Z AUTO 00000KT 10SM SCT005 BKN013 OVC043 17/13 A2993 RMK AO2 T01660125
KARV 241655Z AUTO 00000KT 5SM -DZ SCT027 SCT037 OVC043 16/12 A2994 RMK AO2 T01580116
KARV 241635Z AUTO 00000KT 4SM DZ SCT027 OVC039 16/12 A2994 RMK AO2 T01550115
KARV 241615Z AUTO 00000KT 4SM +RA SCT025 BKN032 BKN040 16/12 A2994 RMK AO2 T01550115
KARV 241555Z AUTO 00000KT 5SM RA SCT009 BKN031 16/12 A2994 RMK AO2 T01560118
KARV 241535Z AUTO 00000KT 10SM -RA OVC009 16/12 A2993 RMK AO2 T01590120
KARV 241515Z AUTO 00000KT 10SM SCT004 BKN007 OVC012 16/12 A2993 RMK AO2 T01570119
KARV 241455Z AUTO 00000KT 5SM HZ BKN007 OVC010 16/12 A2992 RMK AO2 T01550119
KARV 241435Z AUTO 00000KT 10SM OVC005 15/11 A2992 RMK AO2 T01520112
KARV 241415Z AUTO 00000KT 10SM OVC003 15/11 A2992 RMK AO2 T01520112
KARV 241355Z AUTO 00000KT 10SM OVC003 15/11 A2991 RMK AO2 T01520111
KARV 241335Z AUTO 00000KT 10SM OVC003 15/11 A2990 RMK AO2 T01520112
KARV 241315Z AUTO 00000KT 7SM BKN003 OVC090 15/11 A2990 RMK AO2 T01520112
KARV 241255Z AUTO 00000KT 10SM SCT003 SCT042 OVC090 15/11 A2990 RMK AO2 T01520113
KARV 241235Z AUTO 00000KT 10SM RA SCT003 SCT030 OVC090 15/12 A2990 RMK AO2 T01520117
KARV 241215Z AUTO 15003KT 7SM RA SCT055 BKN070 OVC090 15/12 A2991 RMK AO2 T01520116
KARV 241155Z AUTO 00000KT 5SM -RA SCT070 BKN080 OVC090 15/11 A2991 RMK AO2 60046 70088 T01520112 10166 20152
KARV 241135Z AUTO 00000KT 10SM -RA OVC090 15/12 A2991 RMK AO2 T01520120
KARV 241115Z AUTO 21004KT 10SM -RA BKN070 OVC090 15/12 A2991 RMK AO2 LTG DSNT W T01520123
KARV 241055Z AUTO 00000KT 10SM -RA SCT070 OVC100 15/12 A2990 RMK AO2 P0005 T01520123
KARV 241035Z AUTO 00000KT 7SM -RA SCT060 OVC100 15/11 A2991 RMK AO2 P0005 T01520111
KARV 241015Z AUTO 15003KT 7SM RA SCT029 SCT037 OVC050 15/11 A2991 RMK AO2 LTG DSNT SE P0004 T01520110
KARV 240955Z AUTO 19004KT 5SM RA BKN029 OVC034 15/11 A2992 RMK AO2 P0025 T01520112
KARV 240935Z AUTO 16004KT 5SM +RA SCT029 OVC034 15/12 A2992 RMK AO2 P0017 T01520118
KARV 240915Z AUTO 11005KT 5SM +RA SCT006 BKN027 OVC036 15/13 A2992 RMK AO2 LTG DSNT S P0009 T01520129
KARV 240855Z AUTO 24004KT 7SM RA SCT006 BKN037 OVC048 15/11 A2994 RMK AO2 LTG DSNT SE AND S P0003 60015 T01520110
KARV 240835Z AUTO 05004KT 10SM -RA SCT039 BKN048 OVC065 15/11 A2993 RMK AO2 LTG DSNT SE THRU W T01520106
KARV 240815Z AUTO 13003KT 10SM VCTS SCT032 OVC065 15/12 A2991 RMK AO2 LTG DSNT SW AND W T01520116